Two Harbors, MN

10:29 PM CDT on September 01, 2014 (GMT -0500)
Two Harbors - Minke | Change Station
CLOSE
Current Station
Personal Weather Station
Location: Two Harbors, MN
Elevation: 673 ft
Nearby Weather Stations

Elev 673 ft 47.03 °N, 91.67 °W | Updated 27 seconds ago

Clear
Clear
60.1 °F
Feels Like 60.1 °F
N
4.0
Wind Variable Wind from WSW
Gusts 6.0 mph

Today
High -- | Low -- °F
--% Chance of Precip.
Yesterday
High -- | Low -- °F
Precip. -- in
6:26 AM 7:46 PM
Waxing Crescent, 47% visible
Pressure 29.73 in
Visibility 10.0 miles
Clouds Clear
Dew Point 55 °F
Humidity 82%
Rainfall 0.40 in
Snow Depth Not available.
UV 0 out of 12
Pollen 3.00 out of 12
Air Quality Not available.
Flu Activity Not available.
METAR KTWM 020314Z AUTO 27004KT 10SM CLR 13/10 A2973 RMK AO2

More Conditions Fewer Conditions

Pressure 29.73 in
Visibility 10.0 miles
Clouds Clear
Dew Point 55 °F
Humidity 82%
Rainfall 0.40 in
Snow Depth Not available.
UV 0 out of 12
Pollen 3.00 out of 12
Air Quality Not available.
Flu Activity Not available.
METAR KTWM 020314Z AUTO 27004KT 10SM CLR 13/10 A2973 RMK AO2

More Conditions Fewer Conditions

10-Day Weather Forecast

Almanac

Astronomy

Sep. 01, 2014 Rise Set
Actual Time 6:26 AM CDT 7:46 PM CDT
Civil Twilight 5:54 AM CDT 8:17 PM CDT
Nautical Twilight 5:16 AM CDT 8:55 PM CDT
Astronomical Twilight 4:35 AM CDT 9:36 PM CDT
Moon 1:38 PM CDT (9/1) 11:21 PM CDT (9/1)
Length of Visible Light 14h 23m
Length of Day
13h 20m
Tomorrow will be 3m 15s shorter.
Waxing Crescent, 47% of the Moon is Illuminated
Today
Waxing Crescent
Sep 2
First Quarter
Sep 8
Full
Sep 15
Last Quarter
Sep 24
New

Today's Extremes

State Highs State Lows

Community

WunderPhotos

Upload Photos

1,749,546 photos uploaded!

WunderBlogs® & News

Nearby

Snow Depth

Station Depth Elevation
No new snow has been reported.

Earthquake Activity

City Distance Mag. Time & Date
No recent earthquake activity has been reported nearby.
Minimum magnitude displayed is 2.5.

Coastal Water Temperatures

Place Temperature
Duluth, MN 64.9 °F

Nearby Weather Stations